createdAt,value
2022-12-22T00:01:54.616Z,99407.66
2022-12-22T00:04:40.283Z,99408.00
2022-12-22T00:07:25.341Z,99410.88
2022-12-22T00:10:10.765Z,99409.09
2022-12-22T00:12:55.718Z,99398.47
2022-12-22T00:15:40.966Z,99390.13
2022-12-22T00:18:32.619Z,99379.66
2022-12-22T00:21:17.819Z,99388.34
2022-12-22T00:24:02.882Z,99378.69
2022-12-22T00:26:49.528Z,99374.72
2022-12-22T00:29:35.058Z,99373.19
2022-12-22T00:32:21.090Z,99382.59
2022-12-22T00:35:06.593Z,99373.78
2022-12-22T00:37:56.086Z,99374.25
2022-12-22T00:40:45.483Z,99382.38
2022-12-22T00:43:31.217Z,99373.66
2022-12-22T00:46:17.629Z,99370.69
2022-12-22T00:49:03.401Z,99364.38
2022-12-22T00:51:48.970Z,99368.03
2022-12-22T00:54:35.662Z,99370.56
2022-12-22T00:57:20.835Z,99365.41
2022-12-22T01:00:07.739Z,99373.06
2022-12-22T01:02:53.210Z,99365.44
2022-12-22T01:05:38.624Z,99366.63
2022-12-22T01:08:23.797Z,99373.53
2022-12-22T01:11:08.900Z,99368.28
2022-12-22T01:13:53.907Z,99369.50
2022-12-22T01:16:39.077Z,99366.38
2022-12-22T01:19:24.294Z,99368.66
2022-12-22T01:22:09.372Z,99369.97
2022-12-22T01:24:54.746Z,99368.28
2022-12-22T01:27:40.312Z,99369.00
2022-12-22T01:30:26.457Z,99361.25
2022-12-22T01:33:11.981Z,99356.84
2022-12-22T01:35:57.316Z,99356.25
2022-12-22T01:38:42.602Z,99367.34
2022-12-22T01:41:32.141Z,99369.00
2022-12-22T01:44:17.470Z,99360.16
2022-12-22T01:47:04.627Z,99361.75
2022-12-22T01:50:00.511Z,99363.50
2022-12-22T01:52:51.732Z,99357.06
2022-12-22T01:55:40.003Z,99358.50
2022-12-22T01:58:33.212Z,99351.09
2022-12-22T02:01:18.691Z,99348.59
2022-12-22T02:04:04.012Z,99349.19
2022-12-22T02:06:56.250Z,99343.94
2022-12-22T02:10:07.862Z,99350.63
2022-12-22T02:13:06.318Z,99343.47
2022-12-22T02:15:55.564Z,99349.56
2022-12-22T02:18:49.600Z,99362.09
2022-12-22T02:21:40.626Z,99363.78
2022-12-22T02:24:32.018Z,99360.44
2022-12-22T02:27:18.204Z,99356.34
2022-12-22T02:30:25.117Z,99363.25
2022-12-22T02:33:10.459Z,99362.81
2022-12-22T02:36:07.907Z,99367.22
2022-12-22T02:39:17.141Z,99373.44
2022-12-22T02:42:13.622Z,99373.81
2022-12-22T02:45:13.253Z,99376.19
2022-12-22T02:48:20.434Z,99372.84
2022-12-22T02:51:12.490Z,99368.19
2022-12-22T02:53:58.573Z,99374.50
2022-12-22T02:56:44.160Z,99374.63
2022-12-22T02:59:29.718Z,99372.94
2022-12-22T03:02:14.926Z,99371.75
2022-12-22T03:05:00.245Z,99366.75
2022-12-22T03:07:45.402Z,99364.84
2022-12-22T03:10:30.827Z,99364.00
2022-12-22T03:13:19.029Z,99364.13
2022-12-22T03:16:04.481Z,99366.03
2022-12-22T03:18:49.673Z,99364.59
2022-12-22T03:21:35.143Z,99363.78
2022-12-22T03:24:20.308Z,99364.25
2022-12-22T03:26:46.975Z,99363.97
2022-12-22T03:29:13.586Z,99356.72
2022-12-22T03:31:40.263Z,99369.69
2022-12-22T03:34:06.819Z,99359.19
2022-12-22T03:36:33.422Z,99362.22
2022-12-22T03:38:59.940Z,99360.88
2022-12-22T03:41:55.558Z,99369.69
2022-12-22T03:44:40.386Z,99360.16
2022-12-22T03:47:06.981Z,99359.34
2022-12-22T03:49:33.466Z,99353.59
2022-12-22T03:51:59.936Z,99362.06
2022-12-22T03:54:26.494Z,99353.22
2022-12-22T03:56:53.554Z,99350.59
2022-12-22T03:59:20.412Z,99342.03
2022-12-22T04:01:49.801Z,99350.75
2022-12-22T04:04:18.453Z,99341.06
2022-12-22T04:06:45.501Z,99338.88
2022-12-22T04:09:12.382Z,99333.38
2022-12-22T04:11:57.811Z,99331.00
2022-12-22T04:14:31.325Z,99330.66
2022-12-22T04:17:00.621Z,99336.41
2022-12-22T04:19:27.356Z,99333.53
2022-12-22T04:21:54.464Z,99336.25
2022-12-22T04:24:21.021Z,99332.66
2022-12-22T04:26:47.470Z,99326.81
2022-12-22T04:29:13.991Z,99322.84
2022-12-22T04:31:40.906Z,99319.41
2022-12-22T04:34:07.552Z,99316.31
2022-12-22T04:36:34.512Z,99321.56
2022-12-22T04:39:01.032Z,99315.84
2022-12-22T04:41:27.515Z,99311.13
2022-12-22T04:43:54.112Z,99314.97
2022-12-22T04:46:20.789Z,99320.31
2022-12-22T04:48:47.386Z,99323.16
2022-12-22T04:51:13.845Z,99316.47
2022-12-22T04:53:40.521Z,99308.22
2022-12-22T04:56:07.968Z,99304.88
2022-12-22T04:58:34.927Z,99311.03
2022-12-22T05:01:13.949Z,99298.84
2022-12-22T05:03:40.910Z,99297.19
2022-12-22T05:06:07.867Z,99303.97
2022-12-22T05:08:34.711Z,99303.63
2022-12-22T05:11:02.834Z,99308.31
2022-12-22T05:13:32.717Z,99302.81
2022-12-22T05:16:10.926Z,99296.56
2022-12-22T05:18:38.377Z,99300.75
2022-12-22T05:21:13.449Z,99299.19
2022-12-22T05:23:40.628Z,99301.38
2022-12-22T05:26:07.721Z,99292.38
2022-12-22T05:28:34.374Z,99293.72
2022-12-22T05:31:08.784Z,99285.56
2022-12-22T05:33:35.575Z,99294.03
2022-12-22T05:36:02.735Z,99298.13
2022-12-22T05:38:29.380Z,99300.88
2022-12-22T05:41:03.200Z,99293.78
2022-12-22T05:43:31.196Z,99295.25
2022-12-22T05:45:58.644Z,99283.84
2022-12-22T05:48:30.848Z,99294.97
2022-12-22T05:51:00.487Z,99287.19
2022-12-22T05:53:27.062Z,99292.91
2022-12-22T05:55:53.556Z,99294.97
2022-12-22T05:58:20.169Z,99296.38
2022-12-22T06:00:46.716Z,99304.13
2022-12-22T06:03:13.665Z,99301.50
2022-12-22T06:05:40.607Z,99308.66
2022-12-22T06:08:07.156Z,99314.63
2022-12-22T06:10:33.615Z,99315.84
2022-12-22T06:13:00.272Z,99320.13
2022-12-22T06:15:26.731Z,99313.31
2022-12-22T06:17:54.301Z,99312.22
2022-12-22T06:20:20.895Z,99321.06
2022-12-22T06:22:47.390Z,99319.06
2022-12-22T06:25:18.370Z,99318.81
2022-12-22T06:27:46.065Z,99321.06
2022-12-22T06:30:13.073Z,99328.38
2022-12-22T06:32:40.019Z,99331.75
2022-12-22T06:35:07.550Z,99326.47
2022-12-22T06:37:34.062Z,99333.75
2022-12-22T06:40:00.557Z,99332.75
2022-12-22T06:42:45.793Z,99332.38
2022-12-22T06:45:12.460Z,99334.66
2022-12-22T06:47:38.987Z,99332.75
2022-12-22T06:50:06.313Z,99339.00
2022-12-22T06:52:32.823Z,99335.22
2022-12-22T06:54:59.326Z,99335.19
2022-12-22T06:57:25.775Z,99335.75
2022-12-22T06:59:57.274Z,99337.22
2022-12-22T07:02:24.337Z,99336.34
2022-12-22T07:04:50.948Z,99335.16
2022-12-22T07:07:17.449Z,99326.31
2022-12-22T07:09:44.107Z,99323.38
2022-12-22T07:12:10.632Z,99324.75
2022-12-22T07:14:37.112Z,99334.66
2022-12-22T07:17:03.774Z,99329.75
2022-12-22T07:19:32.738Z,99329.88
2022-12-22T07:21:59.369Z,99332.50
2022-12-22T07:24:26.786Z,99326.16
2022-12-22T07:26:53.469Z,99309.97
2022-12-22T07:29:20.473Z,99305.63
2022-12-22T07:31:47.284Z,99299.81
2022-12-22T07:34:14.135Z,99295.56
2022-12-22T07:36:41.079Z,99296.16
2022-12-22T07:39:07.778Z,99301.91
2022-12-22T07:41:53.050Z,99302.06
2022-12-22T07:44:19.719Z,99295.16
2022-12-22T07:46:46.282Z,99303.19
2022-12-22T07:49:31.828Z,99299.09
2022-12-22T07:51:59.221Z,99306.22
2022-12-22T07:54:26.710Z,99308.28
2022-12-22T07:56:53.661Z,99294.53
2022-12-22T07:59:20.507Z,99297.34
2022-12-22T08:01:47.230Z,99299.81
2022-12-22T08:04:14.481Z,99287.47
2022-12-22T08:06:41.615Z,99283.81
2022-12-22T08:09:08.806Z,99281.56
2022-12-22T08:11:35.647Z,99279.84
2022-12-22T08:14:02.501Z,99272.47
2022-12-22T08:16:29.819Z,99259.72
2022-12-22T08:18:56.587Z,99267.16
2022-12-22T08:21:23.567Z,99259.72
2022-12-22T08:23:50.104Z,99255.16
2022-12-22T08:26:22.158Z,99266.25
2022-12-22T08:28:53.007Z,99266.56
2022-12-22T08:31:19.973Z,99257.63
2022-12-22T08:33:48.131Z,99252.53
2022-12-22T08:36:14.893Z,99254.38
2022-12-22T08:38:43.083Z,99252.34
2022-12-22T08:41:10.955Z,99259.00
2022-12-22T08:43:37.661Z,99263.06
2022-12-22T08:46:04.309Z,99259.00
2022-12-22T08:48:32.947Z,99258.63
2022-12-22T08:50:59.766Z,99253.81
2022-12-22T08:54:02.507Z,99256.97
2022-12-22T08:56:12.811Z,99259.66
2022-12-22T08:58:40.303Z,99254.16
2022-12-22T09:01:06.973Z,99259.59
2022-12-22T09:03:33.838Z,99271.03
2022-12-22T09:06:03.882Z,99274.13
2022-12-22T09:08:33.183Z,99275.06
2022-12-22T09:11:04.009Z,99266.78
2022-12-22T09:13:31.248Z,99277.31
2022-12-22T09:15:58.174Z,99269.00
2022-12-22T09:18:25.392Z,99276.63
2022-12-22T09:20:55.734Z,99277.03
2022-12-22T09:23:22.368Z,99260.06
2022-12-22T09:25:48.890Z,99261.97
2022-12-22T09:28:15.549Z,99257.97
2022-12-22T09:30:42.108Z,99252.25
2022-12-22T09:33:08.756Z,99243.91
2022-12-22T09:35:35.294Z,99245.56
2022-12-22T09:38:01.868Z,99230.75
2022-12-22T09:40:28.335Z,99229.16
2022-12-22T09:42:54.850Z,99220.44
2022-12-22T09:45:21.445Z,99216.69
2022-12-22T09:47:53.777Z,99217.19
2022-12-22T09:50:25.065Z,99218.28
2022-12-22T09:53:01.642Z,99220.53
2022-12-22T09:55:49.011Z,99210.84
2022-12-22T09:58:28.907Z,99198.78
2022-12-22T10:01:02.160Z,99203.34
2022-12-22T10:03:46.203Z,99196.66
2022-12-22T10:06:23.396Z,99192.94
2022-12-22T10:08:49.910Z,99191.13
2022-12-22T10:11:18.711Z,99182.19
2022-12-22T10:13:45.895Z,99183.28
2022-12-22T10:16:19.591Z,99176.38
2022-12-22T10:18:57.611Z,99173.63
2022-12-22T10:21:24.489Z,99184.06
2022-12-22T10:23:52.170Z,99175.34
2022-12-22T10:26:29.569Z,99155.09
2022-12-22T10:29:04.675Z,99165.34
2022-12-22T10:31:33.080Z,99165.75
2022-12-22T10:34:10.882Z,99156.19
2022-12-22T10:36:37.518Z,99149.25
2022-12-22T10:39:05.330Z,99151.63
2022-12-22T10:41:46.365Z,99143.72
2022-12-22T10:44:15.558Z,99148.00
2022-12-22T10:46:48.372Z,99136.78
2022-12-22T10:49:23.618Z,99127.34
2022-12-22T10:51:55.568Z,99117.94
2022-12-22T10:54:33.911Z,99118.47
2022-12-22T10:57:06.289Z,99118.50
2022-12-22T10:59:34.014Z,99106.28
2022-12-22T11:02:25.933Z,99102.94
2022-12-22T11:04:53.633Z,99094.19
2022-12-22T11:07:21.081Z,99097.38
2022-12-22T11:09:47.766Z,99099.59
2022-12-22T11:12:55.838Z,99101.44
2022-12-22T11:15:34.123Z,99108.66
2022-12-22T11:18:00.596Z,99100.22
2022-12-22T11:21:09.321Z,99083.44
2022-12-22T11:24:02.751Z,99083.31
2022-12-22T11:26:48.034Z,99088.97
2022-12-22T11:29:44.364Z,99086.47
2022-12-22T11:32:25.537Z,99078.31
2022-12-22T11:34:59.462Z,99064.06
2022-12-22T11:37:38.863Z,99063.06
2022-12-22T11:40:24.680Z,99054.06
2022-12-22T11:43:23.520Z,99059.63
2022-12-22T11:46:34.893Z,99047.84
2022-12-22T11:49:26.859Z,99053.50
2022-12-22T11:52:17.587Z,99034.09
2022-12-22T11:55:29.616Z,99031.06
2022-12-22T11:58:14.318Z,99044.22
2022-12-22T12:01:14.029Z,99049.19
2022-12-22T12:04:07.082Z,99047.78
2022-12-22T12:07:05.682Z,99045.00
2022-12-22T12:09:58.316Z,99046.78
2022-12-22T12:12:43.426Z,99033.91
2022-12-22T12:15:24.541Z,99038.72
2022-12-22T12:18:16.142Z,99022.22
2022-12-22T12:21:04.078Z,99030.72
2022-12-22T12:24:03.095Z,99026.16
2022-12-22T12:26:37.751Z,99025.31
2022-12-22T12:29:17.403Z,99047.78
2022-12-22T12:31:47.385Z,99028.22
2022-12-22T12:34:16.584Z,99012.25
2022-12-22T12:36:51.572Z,99009.22
2022-12-22T12:39:29.395Z,99010.34
2022-12-22T12:42:01.606Z,99013.97
2022-12-22T12:44:35.664Z,99008.00
2022-12-22T12:47:35.260Z,99005.06
2022-12-22T12:50:30.901Z,99003.56
2022-12-22T12:52:57.522Z,99005.00
2022-12-22T12:55:32.848Z,99009.56
2022-12-22T12:58:02.371Z,98998.50
2022-12-22T13:00:35.029Z,99007.66
2022-12-22T13:03:08.301Z,99010.13
2022-12-22T13:05:36.768Z,99007.50
2022-12-22T13:08:14.824Z,99010.25
2022-12-22T13:10:45.975Z,99008.31
2022-12-22T13:13:22.075Z,99008.13
2022-12-22T13:15:51.331Z,99008.69
2022-12-22T13:18:26.799Z,99006.09
2022-12-22T13:21:12.332Z,99018.81
2022-12-22T13:24:23.646Z,99004.53
2022-12-22T13:26:45.586Z,98999.53
2022-12-22T13:29:29.682Z,98987.47
2022-12-22T13:32:12.447Z,98990.91
2022-12-22T13:35:20.578Z,98995.34
2022-12-22T13:37:40.684Z,98985.13
2022-12-22T13:40:19.865Z,98996.16
2022-12-22T13:42:47.505Z,98993.25
2022-12-22T13:45:37.031Z,98976.53
2022-12-22T13:48:10.436Z,98976.78
2022-12-22T13:50:41.603Z,98976.94
2022-12-22T13:53:10.237Z,98977.66
2022-12-22T13:55:37.846Z,98982.34
2022-12-22T13:58:07.985Z,98982.63
2022-12-22T14:00:35.015Z,98969.34
2022-12-22T14:03:01.848Z,98965.50
2022-12-22T14:05:35.234Z,98959.38
2022-12-22T14:08:06.587Z,98944.88
2022-12-22T14:10:36.179Z,98943.66
2022-12-22T14:13:06.645Z,98940.75
2022-12-22T14:15:33.459Z,98935.19
2022-12-22T14:18:00.110Z,98928.41
2022-12-22T14:20:37.049Z,98933.16
2022-12-22T14:23:26.923Z,98941.44
2022-12-22T14:25:54.105Z,98925.66
2022-12-22T14:28:43.566Z,98926.50
2022-12-22T14:31:12.984Z,98925.66
2022-12-22T14:33:54.424Z,98933.13
2022-12-22T14:36:27.394Z,98927.34
2022-12-22T14:39:02.356Z,98924.28
2022-12-22T14:41:51.719Z,98920.09
2022-12-22T14:44:22.947Z,98913.50
2022-12-22T14:47:09.865Z,98905.84
2022-12-22T14:49:43.380Z,98911.69
2022-12-22T14:52:19.030Z,98907.25
2022-12-22T14:54:47.965Z,98913.75
2022-12-22T14:57:16.745Z,98921.22
2022-12-22T14:59:57.937Z,98919.28
2022-12-22T15:02:38.620Z,98908.78
2022-12-22T15:05:15.145Z,98916.53
2022-12-22T15:08:05.219Z,98909.75
2022-12-22T15:10:39.026Z,98904.91
2022-12-22T15:13:10.738Z,98904.06
2022-12-22T15:15:37.303Z,98902.13
2022-12-22T15:18:03.951Z,98896.56
2022-12-22T15:20:38.561Z,98893.53
2022-12-22T15:23:11.526Z,98897.03
2022-12-22T15:25:38.020Z,98900.88
2022-12-22T15:28:04.666Z,98901.00
2022-12-22T15:30:35.336Z,98893.00
2022-12-22T15:33:02.175Z,98891.88
2022-12-22T15:35:34.640Z,98888.84
2022-12-22T15:38:01.411Z,98882.19
2022-12-22T15:40:28.792Z,98888.56
2022-12-22T15:42:55.483Z,98885.22
2022-12-22T15:45:22.627Z,98887.03
2022-12-22T15:47:51.717Z,98868.50
2022-12-22T15:50:22.207Z,98878.84
2022-12-22T15:52:50.917Z,98873.88
2022-12-22T15:55:18.145Z,98872.91
2022-12-22T15:57:44.905Z,98868.75
2022-12-22T16:00:15.224Z,98870.44
2022-12-22T16:02:42.203Z,98867.81
2022-12-22T16:05:09.686Z,98861.00
2022-12-22T16:07:36.829Z,98863.06
2022-12-22T16:10:05.049Z,98847.59
2022-12-22T16:12:37.316Z,98846.75
2022-12-22T16:15:04.217Z,98846.34
2022-12-22T16:17:32.700Z,98845.94
2022-12-22T16:20:00.423Z,98839.81
2022-12-22T16:22:32.613Z,98840.53
2022-12-22T16:25:00.821Z,98847.47
2022-12-22T16:27:27.590Z,98837.88
2022-12-22T16:29:54.792Z,98831.38
2022-12-22T16:32:23.595Z,98820.03
2022-12-22T16:34:50.083Z,98835.41
2022-12-22T16:37:16.650Z,98830.53
2022-12-22T16:39:43.316Z,98833.88
2022-12-22T16:44:58.652Z,98832.91
2022-12-22T16:47:27.394Z,98831.75
2022-12-22T16:49:54.215Z,98830.13
2022-12-22T16:52:24.941Z,98829.31
2022-12-22T16:54:52.955Z,98833.47
2022-12-22T16:57:19.655Z,98827.63
2022-12-22T16:59:46.164Z,98822.63
2022-12-22T17:02:24.495Z,98830.81
2022-12-22T17:04:51.854Z,98829.31
2022-12-22T17:07:18.568Z,98832.63
2022-12-22T17:09:52.857Z,98819.47
2022-12-22T17:12:22.703Z,98821.81
2022-12-22T17:14:49.657Z,98822.19
2022-12-22T17:17:30.846Z,98816.97
2022-12-22T17:19:59.729Z,98807.41
2022-12-22T17:22:31.525Z,98800.44
2022-12-22T17:25:00.905Z,98803.78
2022-12-22T17:27:32.930Z,98805.59
2022-12-22T17:30:05.322Z,98800.44
2022-12-22T17:32:35.073Z,98797.09
2022-12-22T17:35:02.609Z,98803.63
2022-12-22T17:37:29.225Z,98803.31
2022-12-22T17:40:00.671Z,98808.41
2022-12-22T17:42:27.619Z,98806.78
2022-12-22T17:44:54.213Z,98811.75
2022-12-22T17:47:29.079Z,98800.78
2022-12-22T17:49:58.638Z,98796.81
2022-12-22T17:52:27.113Z,98797.19
2022-12-22T17:54:53.975Z,98801.16
2022-12-22T17:57:24.602Z,98793.69
2022-12-22T17:59:51.152Z,98791.19
2022-12-22T18:02:20.593Z,98792.25
2022-12-22T18:04:48.371Z,98790.69
2022-12-22T18:07:17.190Z,98780.75
2022-12-22T18:09:45.378Z,98782.13
2022-12-22T18:12:22.462Z,98776.94
2022-12-22T18:14:50.076Z,98775.28
2022-12-22T18:17:33.388Z,98768.88
2022-12-22T18:20:01.849Z,98762.56
2022-12-22T18:22:29.405Z,98762.75
2022-12-22T18:24:56.552Z,98764.81
2022-12-22T18:27:23.937Z,98763.88
2022-12-22T18:29:50.832Z,98760.84
2022-12-22T18:32:27.558Z,98765.50
2022-12-22T18:34:54.648Z,98758.50
2022-12-22T18:37:21.294Z,98751.38
2022-12-22T18:39:47.877Z,98756.47
2022-12-22T18:42:21.498Z,98758.91
2022-12-22T18:44:48.569Z,98756.34
2022-12-22T18:47:15.291Z,98760.34
2022-12-22T18:49:42.284Z,98757.34
2022-12-22T18:52:19.750Z,98757.16
2022-12-22T18:54:46.551Z,98761.75
2022-12-22T18:57:17.860Z,98760.63
2022-12-22T18:59:45.141Z,98752.72
2022-12-22T19:02:25.235Z,98755.22
2022-12-22T19:04:52.432Z,98751.06
2022-12-22T19:07:21.705Z,98743.63
2022-12-22T19:09:49.126Z,98741.22
2022-12-22T19:12:18.175Z,98738.44
2022-12-22T19:14:46.745Z,98730.00
2022-12-22T19:17:21.838Z,98739.88
2022-12-22T19:19:48.449Z,98735.75
2022-12-22T19:22:15.939Z,98736.56
2022-12-22T19:24:45.012Z,98740.22
2022-12-22T19:27:22.080Z,98730.22
2022-12-22T19:29:48.905Z,98742.41
2022-12-22T19:32:23.877Z,98734.38
2022-12-22T19:34:50.687Z,98733.38
2022-12-22T19:37:18.529Z,98724.13
2022-12-22T19:39:45.609Z,98733.00
2022-12-22T19:42:15.584Z,98739.63
2022-12-22T19:44:43.088Z,98743.53
2022-12-22T19:47:17.191Z,98731.50
2022-12-22T19:49:43.675Z,98729.84
2022-12-22T19:52:10.628Z,98726.09
2022-12-22T19:54:37.916Z,98724.41
2022-12-22T19:57:06.540Z,98725.28
2022-12-22T19:59:38.970Z,98722.03
2022-12-22T20:02:23.596Z,98716.44
2022-12-22T20:04:50.782Z,98713.59
2022-12-22T20:07:27.801Z,98716.59
2022-12-22T20:09:54.557Z,98712.97
2022-12-22T20:12:23.768Z,98708.03
2022-12-22T20:14:51.024Z,98710.78
2022-12-22T20:17:21.798Z,98699.53
2022-12-22T20:19:51.789Z,98699.81
2022-12-22T20:22:19.672Z,98696.50
2022-12-22T20:24:46.928Z,98697.72
2022-12-22T20:27:19.064Z,98701.16
2022-12-22T20:29:45.627Z,98698.44
2022-12-22T20:32:15.532Z,98698.91
2022-12-22T20:34:42.538Z,98699.91
2022-12-22T20:37:16.578Z,98697.94
2022-12-22T20:39:43.821Z,98704.19
2022-12-22T20:42:21.480Z,98701.84
2022-12-22T20:45:03.224Z,98693.34
2022-12-22T20:47:35.053Z,98693.19
2022-12-22T20:50:01.715Z,98691.00
2022-12-22T20:52:28.292Z,98693.72
2022-12-22T20:54:55.026Z,98693.94
2022-12-22T20:57:21.780Z,98697.09
2022-12-22T20:59:55.752Z,98698.63
2022-12-22T21:02:25.223Z,98695.44
2022-12-22T21:04:52.018Z,98695.13
2022-12-22T21:07:18.638Z,98701.03
2022-12-22T21:09:45.316Z,98696.81
2022-12-22T21:12:11.918Z,98695.53
2022-12-22T21:14:38.486Z,98698.91
2022-12-22T21:17:05.287Z,98694.84
2022-12-22T21:19:35.362Z,98699.91
2022-12-22T21:22:02.060Z,98697.41
2022-12-22T21:24:32.112Z,98693.19
2022-12-22T21:26:58.658Z,98691.00
2022-12-22T21:29:27.154Z,98691.69
2022-12-22T21:31:53.980Z,98688.44
2022-12-22T21:34:21.068Z,98694.00
2022-12-22T21:36:50.149Z,98689.13
2022-12-22T21:39:32.651Z,98692.41
2022-12-22T21:42:04.537Z,98689.78
2022-12-22T21:44:34.034Z,98680.38
2022-12-22T21:47:01.094Z,98686.41
2022-12-22T21:49:32.071Z,98683.09
2022-12-22T21:51:58.817Z,98679.22
2022-12-22T21:54:25.821Z,98687.81
2022-12-22T21:56:53.532Z,98675.94
2022-12-22T21:59:20.268Z,98685.50
2022-12-22T22:01:47.205Z,98683.00
2022-12-22T22:04:13.922Z,98681.50
2022-12-22T22:06:40.847Z,98681.81
2022-12-22T22:09:07.593Z,98686.19
2022-12-22T22:11:54.184Z,98683.78
2022-12-22T22:14:21.049Z,98681.50
2022-12-22T22:16:47.714Z,98683.19
2022-12-22T22:19:14.455Z,98676.53
2022-12-22T22:21:40.936Z,98673.81
2022-12-22T22:24:07.546Z,98679.78
2022-12-22T22:26:34.191Z,98672.00
2022-12-22T22:29:01.109Z,98675.94
2022-12-22T22:31:27.765Z,98672.63
2022-12-22T22:33:54.470Z,98678.28
2022-12-22T22:36:21.438Z,98672.53
2022-12-22T22:38:51.015Z,98675.94
2022-12-22T22:41:17.601Z,98674.59
2022-12-22T22:43:44.130Z,98678.19
2022-12-22T22:46:10.683Z,98678.72
2022-12-22T22:48:37.319Z,98672.63
2022-12-22T22:51:04.095Z,98678.50
2022-12-22T22:53:30.944Z,98677.44
2022-12-22T22:56:02.355Z,98674.00
2022-12-22T22:58:29.557Z,98677.09
2022-12-22T23:00:56.405Z,98676.63
2022-12-22T23:03:23.243Z,98667.22
2022-12-22T23:05:49.886Z,98671.19
2022-12-22T23:08:16.417Z,98667.22
2022-12-22T23:10:49.310Z,98670.00
2022-12-22T23:13:15.751Z,98659.78
2022-12-22T23:15:42.295Z,98665.78
2022-12-22T23:18:08.969Z,98674.91
2022-12-22T23:20:35.413Z,98670.97
2022-12-22T23:23:02.008Z,98674.88
2022-12-22T23:25:28.495Z,98677.47
2022-12-22T23:27:55.068Z,98674.97
2022-12-22T23:30:21.593Z,98671.81
2022-12-22T23:32:48.143Z,98674.81
2022-12-22T23:35:14.625Z,98673.53
2022-12-22T23:37:41.294Z,98676.69
2022-12-22T23:40:41.786Z,98678.28
2022-12-22T23:42:56.974Z,98671.13
2022-12-22T23:45:24.063Z,98678.03
2022-12-22T23:47:50.618Z,98667.38
2022-12-22T23:50:17.299Z,98671.81
2022-12-22T23:52:48.925Z,98670.81
2022-12-22T23:55:15.865Z,98673.75
2022-12-22T23:57:42.337Z,98671.81
